createdAt,value
2023-04-04T00:01:47.099Z,9.39
2023-04-04T00:04:16.215Z,9.05
2023-04-04T00:06:46.095Z,9.12
2023-04-04T00:09:16.063Z,9.08
2023-04-04T00:11:45.588Z,9.10
2023-04-04T00:14:15.366Z,9.07
2023-04-04T00:16:45.940Z,9.01
2023-04-04T00:19:19.032Z,9.04
2023-04-04T00:21:47.976Z,8.96
2023-04-04T00:24:17.108Z,8.87
2023-04-04T00:26:46.110Z,8.90
2023-04-04T00:29:15.261Z,8.83
2023-04-04T00:31:45.993Z,8.84
2023-04-04T00:34:15.061Z,8.77
2023-04-04T00:36:44.552Z,8.88
2023-04-04T00:39:14.387Z,8.96
2023-04-04T00:41:43.642Z,9.07
2023-04-04T00:44:13.350Z,9.00
2023-04-04T00:46:42.495Z,9.02
2023-04-04T00:49:13.018Z,8.94
2023-04-04T00:51:42.121Z,8.94
2023-04-04T00:54:12.110Z,9.12
2023-04-04T00:56:42.121Z,9.23
2023-04-04T00:59:11.363Z,9.27
2023-04-04T01:01:41.117Z,9.36
2023-04-04T01:04:11.092Z,9.41
2023-04-04T01:06:41.886Z,9.46
2023-04-04T01:09:11.600Z,9.53
2023-04-04T01:11:41.929Z,9.53
2023-04-04T01:14:11.219Z,9.53
2023-04-04T01:16:41.454Z,9.56
2023-04-04T01:19:15.886Z,9.56
2023-04-04T01:21:48.334Z,9.53
2023-04-04T01:24:20.559Z,9.59
2023-04-04T01:26:58.385Z,9.66
2023-04-04T01:29:27.866Z,9.70
2023-04-04T01:32:05.716Z,9.67
2023-04-04T01:34:44.255Z,9.65
2023-04-04T01:37:20.799Z,9.64
2023-04-04T01:39:55.169Z,9.59
2023-04-04T01:42:28.740Z,9.66
2023-04-04T01:44:59.493Z,9.69
2023-04-04T01:47:41.380Z,9.69
2023-04-04T01:50:14.780Z,9.53
2023-04-04T01:52:44.068Z,9.43
2023-04-04T01:55:13.566Z,9.53
2023-04-04T01:57:44.876Z,9.43
2023-04-04T02:00:15.870Z,9.41
2023-04-04T02:02:45.363Z,9.29
2023-04-04T02:05:14.732Z,9.32
2023-04-04T02:07:43.914Z,9.30
2023-04-04T02:10:23.022Z,9.17
2023-04-04T02:12:56.060Z,9.24
2023-04-04T02:15:26.840Z,9.24
2023-04-04T02:17:56.992Z,9.20
2023-04-04T02:20:26.470Z,9.24
2023-04-04T02:22:57.409Z,9.16
2023-04-04T02:25:27.224Z,9.23
2023-04-04T02:27:57.817Z,9.26
2023-04-04T02:30:27.413Z,9.24
2023-04-04T02:33:00.220Z,9.27
2023-04-04T02:35:29.316Z,9.31
2023-04-04T02:37:58.367Z,9.32
2023-04-04T02:40:39.987Z,9.12
2023-04-04T02:43:11.061Z,9.23
2023-04-04T02:45:41.039Z,9.30
2023-04-04T02:48:36.620Z,9.31
2023-04-04T02:51:05.878Z,9.39
2023-04-04T02:53:36.454Z,9.43
2023-04-04T02:56:18.364Z,9.51
2023-04-04T02:58:49.562Z,9.56
2023-04-04T03:01:19.445Z,9.54
2023-04-04T03:03:49.425Z,9.46
2023-04-04T03:06:19.305Z,9.55
2023-04-04T03:08:50.253Z,9.57
2023-04-04T03:11:21.746Z,9.62
2023-04-04T03:13:56.209Z,9.67
2023-04-04T03:16:35.553Z,9.44
2023-04-04T03:19:04.814Z,9.54
2023-04-04T03:21:33.836Z,9.50
2023-04-04T03:24:02.931Z,9.58
2023-04-04T03:26:32.672Z,9.62
2023-04-04T03:29:05.053Z,9.65
2023-04-04T03:31:34.335Z,9.68
2023-04-04T03:34:04.823Z,9.69
2023-04-04T03:36:34.056Z,9.70
2023-04-04T03:39:03.348Z,9.76
2023-04-04T03:41:32.514Z,9.71
2023-04-04T03:44:05.206Z,9.80
2023-04-04T03:46:35.896Z,9.75
2023-04-04T03:49:06.448Z,9.79
2023-04-04T03:51:35.660Z,9.72
2023-04-04T03:54:06.435Z,9.73
2023-04-04T03:56:36.410Z,9.76
2023-04-04T03:59:10.447Z,9.74
2023-04-04T04:01:39.663Z,9.83
2023-04-04T04:04:09.500Z,9.83
2023-04-04T04:06:38.740Z,9.81
2023-04-04T04:09:08.213Z,9.76
2023-04-04T04:11:37.706Z,9.82
2023-04-04T04:14:06.817Z,9.80
2023-04-04T04:16:41.580Z,9.82
2023-04-04T04:19:13.958Z,9.79
2023-04-04T04:21:45.128Z,9.82
2023-04-04T04:24:14.304Z,9.77
2023-04-04T04:26:44.264Z,9.70
2023-04-04T04:29:18.229Z,9.69
2023-04-04T04:31:48.939Z,9.71
2023-04-04T04:34:19.088Z,9.71
2023-04-04T04:36:49.598Z,9.71
2023-04-04T04:39:26.527Z,9.68
2023-04-04T04:42:18.131Z,9.70
2023-04-04T04:44:53.389Z,9.73
2023-04-04T04:47:25.421Z,9.69
2023-04-04T04:49:55.231Z,9.77
2023-04-04T04:52:34.812Z,9.72
2023-04-04T04:55:04.016Z,9.68
2023-04-04T04:57:35.488Z,9.63
2023-04-04T05:00:10.898Z,9.60
2023-04-04T05:02:41.949Z,9.62
2023-04-04T05:05:12.221Z,9.64
2023-04-04T05:07:46.868Z,9.60
2023-04-04T05:10:16.657Z,9.51
2023-04-04T05:12:46.698Z,9.39
2023-04-04T05:15:22.791Z,9.37
2023-04-04T05:17:55.485Z,9.27
2023-04-04T05:20:24.822Z,9.13
2023-04-04T05:22:55.524Z,9.12
2023-04-04T05:25:34.385Z,9.08
2023-04-04T05:28:04.249Z,9.03
2023-04-04T05:30:34.634Z,8.81
2023-04-04T05:33:15.101Z,8.69
2023-04-04T05:35:50.324Z,8.49
2023-04-04T05:38:20.396Z,8.34
2023-04-04T05:40:54.914Z,8.16
2023-04-04T05:43:25.440Z,8.09
2023-04-04T05:46:09.260Z,7.86
2023-04-04T05:48:45.867Z,7.54
2023-04-04T05:51:15.948Z,7.32
2023-04-04T05:53:56.446Z,7.27
2023-04-04T05:56:31.492Z,7.16
2023-04-04T05:59:01.812Z,6.84
2023-04-04T06:01:35.276Z,6.69
2023-04-04T06:04:13.644Z,6.54
2023-04-04T06:06:42.924Z,6.53
2023-04-04T06:09:12.852Z,6.55
2023-04-04T06:11:41.989Z,6.45
2023-04-04T06:14:15.166Z,6.19
2023-04-04T06:16:46.580Z,6.09
2023-04-04T06:19:20.701Z,6.00
2023-04-04T06:21:50.832Z,5.86
2023-04-04T06:24:20.595Z,5.74
2023-04-04T06:26:51.859Z,5.70
2023-04-04T06:29:24.495Z,5.76
2023-04-04T06:31:54.004Z,5.70
2023-04-04T06:34:35.889Z,5.69
2023-04-04T06:37:05.068Z,5.58
2023-04-04T06:39:41.346Z,5.68
2023-04-04T06:42:17.751Z,5.59
2023-04-04T06:44:50.248Z,5.55
2023-04-04T06:47:19.368Z,5.63
2023-04-04T06:49:50.078Z,5.63
2023-04-04T06:52:19.948Z,5.65
2023-04-04T06:54:49.325Z,5.76
2023-04-04T06:57:19.529Z,5.63
2023-04-04T06:59:49.764Z,5.53
2023-04-04T07:02:19.001Z,5.53
2023-04-04T07:04:49.646Z,5.31
2023-04-04T07:07:18.769Z,5.48
2023-04-04T07:09:47.867Z,5.36
2023-04-04T07:12:17.105Z,5.50
2023-04-04T07:14:46.285Z,5.40
2023-04-04T07:17:24.231Z,5.58
2023-04-04T07:19:55.838Z,5.52
2023-04-04T07:22:25.017Z,5.50
2023-04-04T07:24:54.878Z,5.48
2023-04-04T07:27:24.706Z,5.44
2023-04-04T07:29:53.782Z,5.30
2023-04-04T07:32:24.592Z,5.24
2023-04-04T07:34:55.741Z,5.28
2023-04-04T07:37:26.894Z,5.35
2023-04-04T07:39:56.096Z,5.42
2023-04-04T07:42:25.660Z,5.50
2023-04-04T07:44:54.788Z,5.61
2023-04-04T07:47:24.029Z,5.58
2023-04-04T07:49:54.797Z,5.56
2023-04-04T07:52:23.832Z,5.43
2023-04-04T07:54:53.577Z,5.54
2023-04-04T07:57:22.684Z,5.55
2023-04-04T07:59:51.928Z,5.33
2023-04-04T08:02:21.567Z,5.36
2023-04-04T08:04:50.846Z,5.55
2023-04-04T08:07:21.500Z,5.60
2023-04-04T08:09:50.659Z,5.54
2023-04-04T08:12:19.767Z,5.51
2023-04-04T08:14:48.921Z,5.61
2023-04-04T08:17:19.415Z,5.41
2023-04-04T08:19:48.586Z,5.45
2023-04-04T08:22:17.761Z,5.33
2023-04-04T08:24:48.705Z,5.27
2023-04-04T08:27:17.822Z,5.35
2023-04-04T08:29:48.306Z,5.36
2023-04-04T08:32:17.414Z,5.26
2023-04-04T08:34:46.737Z,5.27
2023-04-04T08:37:16.203Z,5.39
2023-04-04T08:39:45.636Z,5.31
2023-04-04T08:42:21.015Z,5.30
2023-04-04T08:44:54.346Z,5.27
2023-04-04T08:47:26.022Z,5.25
2023-04-04T08:49:56.916Z,5.37
2023-04-04T08:52:29.419Z,5.61
2023-04-04T08:54:59.060Z,5.80
2023-04-04T08:57:29.660Z,5.55
2023-04-04T08:59:59.250Z,5.51
2023-04-04T09:02:35.763Z,5.51
2023-04-04T09:05:08.712Z,5.35
2023-04-04T09:07:39.467Z,5.55
2023-04-04T09:10:12.036Z,5.56
2023-04-04T09:12:45.884Z,5.47
2023-04-04T09:15:15.211Z,5.22
2023-04-04T09:17:44.404Z,5.20
2023-04-04T09:20:38.835Z,5.26
2023-04-04T09:23:09.640Z,5.21
2023-04-04T09:25:39.184Z,5.18
2023-04-04T09:28:12.993Z,5.07
2023-04-04T09:30:42.462Z,5.10
2023-04-04T09:33:13.443Z,5.20
2023-04-04T09:35:47.454Z,5.22
2023-04-04T09:38:18.164Z,5.14
2023-04-04T09:40:48.617Z,5.15
2023-04-04T09:43:22.379Z,5.12
2023-04-04T09:45:52.127Z,5.19
2023-04-04T09:48:29.064Z,5.34
2023-04-04T09:51:00.145Z,5.19
2023-04-04T09:53:29.269Z,4.98
2023-04-04T09:55:59.318Z,5.05
2023-04-04T09:58:32.227Z,5.11
2023-04-04T10:01:02.568Z,5.19
2023-04-04T10:03:32.596Z,5.28
2023-04-04T10:06:06.939Z,5.42
2023-04-04T10:08:38.817Z,5.31
2023-04-04T10:11:11.371Z,5.22
2023-04-04T10:13:44.848Z,5.29
2023-04-04T10:16:15.637Z,5.30
2023-04-04T10:18:45.675Z,5.14
2023-04-04T10:21:16.026Z,5.27
2023-04-04T10:23:48.448Z,5.28
2023-04-04T10:26:17.686Z,5.38
2023-04-04T10:28:48.306Z,5.48
2023-04-04T10:31:21.632Z,5.50
2023-04-04T10:34:02.085Z,5.40
2023-04-04T10:36:36.128Z,5.45
2023-04-04T10:39:14.432Z,5.34
2023-04-04T10:41:44.525Z,5.40
2023-04-04T10:44:25.962Z,5.25
2023-04-04T10:46:57.107Z,5.24
2023-04-04T10:49:27.174Z,5.19
2023-04-04T10:51:57.828Z,5.07
2023-04-04T10:54:29.385Z,5.26
2023-04-04T10:57:01.003Z,5.19
2023-04-04T10:59:31.741Z,5.21
2023-04-04T11:02:02.276Z,5.14
2023-04-04T11:04:34.541Z,5.09
2023-04-04T11:07:13.834Z,5.16
2023-04-04T11:09:56.870Z,5.20
2023-04-04T11:12:31.716Z,5.09
2023-04-04T11:15:11.761Z,5.14
2023-04-04T11:17:45.328Z,5.12
2023-04-04T11:20:18.273Z,4.86
2023-04-04T11:22:47.542Z,5.06
2023-04-04T11:25:34.411Z,5.18
2023-04-04T11:28:10.529Z,5.04
2023-04-04T11:30:52.283Z,4.90
2023-04-04T11:33:32.760Z,4.74
2023-04-04T11:36:08.613Z,4.73
2023-04-04T11:38:42.833Z,4.77
2023-04-04T11:41:15.178Z,4.54
2023-04-04T11:43:47.326Z,4.60
2023-04-04T11:46:19.897Z,4.68
2023-04-04T11:48:49.868Z,4.66
2023-04-04T11:51:20.623Z,4.55
2023-04-04T11:53:49.745Z,4.52
2023-04-04T11:56:21.030Z,4.51
2023-04-04T11:58:56.084Z,4.48
2023-04-04T12:01:33.046Z,4.32
2023-04-04T12:04:03.055Z,4.23
2023-04-04T12:06:33.429Z,4.31
2023-04-04T12:09:06.252Z,4.29
2023-04-04T12:11:36.634Z,4.31
2023-04-04T12:14:06.022Z,4.24
2023-04-04T12:16:37.783Z,4.31
2023-04-04T12:19:10.014Z,4.32
2023-04-04T12:21:39.203Z,4.25
2023-04-04T12:24:09.381Z,4.30
2023-04-04T12:26:39.558Z,4.23
2023-04-04T12:29:10.294Z,4.29
2023-04-04T12:31:44.560Z,4.18
2023-04-04T12:34:19.357Z,4.27
2023-04-04T12:37:03.123Z,4.31
2023-04-04T12:39:32.420Z,4.33
2023-04-04T12:42:03.967Z,4.22
2023-04-04T12:44:35.770Z,4.28
2023-04-04T12:47:09.002Z,4.44
2023-04-04T12:49:43.010Z,4.52
2023-04-04T12:52:19.887Z,4.40
2023-04-04T12:54:59.195Z,4.48
2023-04-04T12:57:37.460Z,4.62
2023-04-04T13:00:09.361Z,4.69
2023-04-04T13:02:44.524Z,4.57
2023-04-04T13:05:15.623Z,4.53
2023-04-04T13:07:46.397Z,4.53
2023-04-04T13:10:17.606Z,4.47
2023-04-04T13:12:59.046Z,4.33
2023-04-04T13:15:50.692Z,4.35
2023-04-04T13:18:23.928Z,4.30
2023-04-04T13:20:55.212Z,4.21
2023-04-04T13:23:25.141Z,4.18
2023-04-04T13:25:54.438Z,4.22
2023-04-04T13:28:23.595Z,4.11
2023-04-04T13:30:52.774Z,4.08
2023-04-04T13:33:23.830Z,4.13
2023-04-04T13:35:52.869Z,4.00
2023-04-04T13:38:22.000Z,3.96
2023-04-04T13:40:51.088Z,3.86
2023-04-04T13:43:20.251Z,3.83
2023-04-04T13:45:49.670Z,3.68
2023-04-04T13:48:19.517Z,3.55
2023-04-04T13:50:51.635Z,3.52
2023-04-04T13:53:23.868Z,3.52
2023-04-04T13:56:16.034Z,3.52
2023-04-04T13:58:42.091Z,3.45
2023-04-04T14:01:11.398Z,3.54
2023-04-04T14:03:40.894Z,3.45
2023-04-04T14:06:11.584Z,3.27
2023-04-04T14:08:40.851Z,3.32
2023-04-04T14:11:10.150Z,3.26
2023-04-04T14:13:39.266Z,3.33
2023-04-04T14:16:09.805Z,3.37
2023-04-04T14:18:39.165Z,3.17
2023-04-04T14:21:08.754Z,3.18
2023-04-04T14:23:39.380Z,3.27
2023-04-04T14:26:08.510Z,3.33
2023-04-04T14:28:38.915Z,3.20
2023-04-04T14:31:08.199Z,3.17
2023-04-04T14:33:37.419Z,3.26
2023-04-04T14:36:06.841Z,3.13
2023-04-04T14:38:35.927Z,3.20
2023-04-04T14:41:06.770Z,3.10
2023-04-04T14:43:35.826Z,3.18
2023-04-04T14:46:06.771Z,3.17
2023-04-04T14:48:35.990Z,3.04
2023-04-04T14:51:05.300Z,3.01
2023-04-04T14:53:34.350Z,3.06
2023-04-04T14:56:03.543Z,2.99
2023-04-04T14:58:34.284Z,2.98
2023-04-04T15:01:04.241Z,2.93
2023-04-04T15:03:35.023Z,3.09
2023-04-04T15:06:05.197Z,3.10
2023-04-04T15:08:34.306Z,3.08
2023-04-04T15:11:03.696Z,3.21
2023-04-04T15:13:35.043Z,3.19
2023-04-04T15:16:04.534Z,3.34
2023-04-04T15:18:34.115Z,3.41
2023-04-04T15:21:03.424Z,3.31
2023-04-04T15:23:32.675Z,3.28
2023-04-04T15:26:03.004Z,3.21
2023-04-04T15:28:33.622Z,3.28
2023-04-04T15:31:03.261Z,3.29
2023-04-04T15:33:33.047Z,3.24
2023-04-04T15:36:02.296Z,3.22
2023-04-04T15:38:31.490Z,3.27
2023-04-04T15:41:00.909Z,3.15
2023-04-04T15:43:29.991Z,3.10
2023-04-04T15:46:00.839Z,3.01
2023-04-04T15:48:30.774Z,3.00
2023-04-04T15:51:02.881Z,2.97
2023-04-04T15:53:32.094Z,3.03
2023-04-04T15:56:02.288Z,2.97
2023-04-04T15:58:31.507Z,2.92
2023-04-04T16:01:02.439Z,2.80
2023-04-04T16:03:31.876Z,2.74
2023-04-04T16:06:02.115Z,2.73
2023-04-04T16:08:31.503Z,2.53
2023-04-04T16:11:02.850Z,2.71
2023-04-04T16:13:32.127Z,2.74
2023-04-04T16:16:03.056Z,2.51
2023-04-04T16:18:32.334Z,2.48
2023-04-04T16:21:03.832Z,2.44
2023-04-04T16:23:33.968Z,2.29
2023-04-04T16:26:03.463Z,2.29
2023-04-04T16:28:32.701Z,2.26
2023-04-04T16:31:03.695Z,2.14
2023-04-04T16:33:33.008Z,2.03
2023-04-04T16:36:02.609Z,2.16
2023-04-04T16:38:32.027Z,2.15
2023-04-04T16:41:02.306Z,2.22
2023-04-04T16:43:32.156Z,2.22
2023-04-04T16:46:02.812Z,2.13
2023-04-04T16:48:32.088Z,2.06
2023-04-04T16:51:01.165Z,2.03
2023-04-04T16:53:30.691Z,2.01
2023-04-04T16:55:59.938Z,2.06
2023-04-04T16:58:28.994Z,2.15
2023-04-04T17:00:58.263Z,2.18
2023-04-04T17:03:28.849Z,2.11
2023-04-04T17:06:01.892Z,1.91
2023-04-04T17:08:31.102Z,1.97
2023-04-04T17:11:00.283Z,1.85
2023-04-04T17:13:29.519Z,1.94
2023-04-04T17:15:58.680Z,1.86
2023-04-04T17:18:29.350Z,1.75
2023-04-04T17:20:58.646Z,1.81
2023-04-04T17:23:28.174Z,1.74
2023-04-04T17:25:57.376Z,1.62
2023-04-04T17:28:26.708Z,1.66
2023-04-04T17:30:55.812Z,1.53
2023-04-04T17:33:27.158Z,1.54
2023-04-04T17:35:57.746Z,1.54
2023-04-04T17:38:27.150Z,1.53
2023-04-04T17:40:56.491Z,1.73
2023-04-04T17:43:25.835Z,1.65
2023-04-04T17:45:55.275Z,1.54
2023-04-04T17:48:26.685Z,1.62
2023-04-04T17:50:57.347Z,1.66
2023-04-04T17:53:27.304Z,1.53
2023-04-04T17:55:56.658Z,1.53
2023-04-04T17:58:26.652Z,1.52
2023-04-04T18:00:57.753Z,1.52
2023-04-04T18:03:26.929Z,1.43
2023-04-04T18:05:57.818Z,1.54
2023-04-04T18:08:27.072Z,1.48
2023-04-04T18:10:58.758Z,1.44
2023-04-04T18:13:28.639Z,1.58
2023-04-04T18:15:57.745Z,1.53
2023-04-04T18:18:27.213Z,1.65
2023-04-04T18:20:58.020Z,1.51
2023-04-04T18:23:27.693Z,1.42
2023-04-04T18:25:57.508Z,1.35
2023-04-04T18:28:26.785Z,1.29
2023-04-04T18:30:56.020Z,1.31
2023-04-04T18:33:26.879Z,1.25
2023-04-04T18:35:58.230Z,1.36
2023-04-04T18:38:28.908Z,1.39
2023-04-04T18:40:58.387Z,1.34
2023-04-04T18:43:27.799Z,1.37
2023-04-04T18:45:58.405Z,1.29
2023-04-04T18:48:27.822Z,1.33
2023-04-04T18:50:58.624Z,1.37
2023-04-04T18:53:30.293Z,1.35
2023-04-04T18:56:00.062Z,1.33
2023-04-04T18:58:29.390Z,1.35
2023-04-04T19:00:58.856Z,1.43
2023-04-04T19:03:28.323Z,1.36
2023-04-04T19:05:59.544Z,1.30
2023-04-04T19:08:29.634Z,1.30
2023-04-04T19:10:58.975Z,1.44
2023-04-04T19:13:28.255Z,1.53
2023-04-04T19:15:57.422Z,1.49
2023-04-04T19:18:27.112Z,1.41
2023-04-04T19:20:56.542Z,1.36
2023-04-04T19:23:28.045Z,1.31
2023-04-04T19:25:57.205Z,1.31
2023-04-04T19:28:26.274Z,1.35
2023-04-04T19:30:55.801Z,1.39
2023-04-04T19:33:26.288Z,1.29
2023-04-04T19:35:59.174Z,1.25
2023-04-04T19:38:29.972Z,1.26
2023-04-04T19:41:02.330Z,1.13
2023-04-04T19:43:32.838Z,1.09
2023-04-04T19:46:09.247Z,1.15
2023-04-04T19:48:43.991Z,1.25
2023-04-04T19:51:38.024Z,1.21
2023-04-04T19:54:13.055Z,1.20
2023-04-04T19:56:42.807Z,1.12
2023-04-04T19:59:49.154Z,1.12
2023-04-04T20:02:52.603Z,0.95
2023-04-04T20:05:54.970Z,1.03
2023-04-04T20:08:24.015Z,0.98
2023-04-04T20:10:58.881Z,0.89
2023-04-04T20:13:28.127Z,0.87
2023-04-04T20:16:01.347Z,0.95
2023-04-04T20:18:33.095Z,0.87
2023-04-04T20:21:04.545Z,0.85
2023-04-04T20:23:36.228Z,0.94
2023-04-04T20:26:10.685Z,0.94
2023-04-04T20:28:39.780Z,0.98
2023-04-04T20:31:12.429Z,0.94
2023-04-04T20:33:42.350Z,0.91
2023-04-04T20:36:14.002Z,1.01
2023-04-04T20:38:43.785Z,0.96
2023-04-04T20:41:23.461Z,0.94
2023-04-04T20:43:55.123Z,0.91
2023-04-04T20:46:25.712Z,0.84
2023-04-04T20:48:56.897Z,0.96
2023-04-04T20:51:32.397Z,0.89
2023-04-04T20:54:03.541Z,0.96
2023-04-04T20:56:56.734Z,1.04
2023-04-04T20:59:32.242Z,1.03
2023-04-04T21:02:09.116Z,0.93
2023-04-04T21:04:39.088Z,0.90
2023-04-04T21:07:08.709Z,1.00
2023-04-04T21:09:37.954Z,0.93
2023-04-04T21:12:09.117Z,0.92
2023-04-04T21:14:38.152Z,0.94
2023-04-04T21:17:08.061Z,0.94
2023-04-04T21:19:37.192Z,1.06
2023-04-04T21:22:08.670Z,1.04
2023-04-04T21:24:38.603Z,1.01
2023-04-04T21:27:10.067Z,1.09
2023-04-04T21:29:39.134Z,1.10
2023-04-04T21:32:08.745Z,0.95
2023-04-04T21:34:38.361Z,0.97
2023-04-04T21:37:07.586Z,0.92
2023-04-04T21:39:38.146Z,1.05
2023-04-04T21:42:09.187Z,0.98
2023-04-04T21:44:38.703Z,1.15
2023-04-04T21:47:07.745Z,0.94
2023-04-04T21:49:36.788Z,1.01
2023-04-04T21:52:05.880Z,1.06
2023-04-04T21:54:35.535Z,0.88
2023-04-04T21:57:04.626Z,0.94
2023-04-04T21:59:35.314Z,0.97
2023-04-04T22:02:04.591Z,1.10
2023-04-04T22:04:33.700Z,1.02
2023-04-04T22:07:02.728Z,1.00
2023-04-04T22:09:31.853Z,1.09
2023-04-04T22:12:03.192Z,1.17
2023-04-04T22:14:32.288Z,0.98
2023-04-04T22:17:03.289Z,1.09
2023-04-04T22:19:43.408Z,1.02
2023-04-04T22:22:13.262Z,1.11
2023-04-04T22:24:42.281Z,0.97
2023-04-04T22:27:15.004Z,0.97
2023-04-04T22:29:44.036Z,0.99
2023-04-04T22:32:14.471Z,0.92
2023-04-04T22:34:43.658Z,0.88
2023-04-04T22:37:12.739Z,0.88
2023-04-04T22:39:43.111Z,0.89
2023-04-04T22:42:12.939Z,0.98
2023-04-04T22:44:42.110Z,0.96
2023-04-04T22:47:12.233Z,0.92
2023-04-04T22:49:48.366Z,0.87
2023-04-04T22:52:19.035Z,0.88
2023-04-04T22:54:48.118Z,0.93
2023-04-04T22:57:17.176Z,0.95
2023-04-04T22:59:46.878Z,0.92
2023-04-04T23:02:16.446Z,0.92
2023-04-04T23:04:47.693Z,0.90
2023-04-04T23:07:16.874Z,0.91
2023-04-04T23:09:46.014Z,0.92
2023-04-04T23:12:15.073Z,0.95
2023-04-04T23:14:45.216Z,1.13
2023-04-04T23:17:14.720Z,1.01
2023-04-04T23:19:43.746Z,0.95
2023-04-04T23:22:14.298Z,0.92
2023-04-04T23:24:44.891Z,1.05
2023-04-04T23:27:14.097Z,0.98
2023-04-04T23:29:43.218Z,0.92
2023-04-04T23:32:13.017Z,0.98
2023-04-04T23:34:42.236Z,1.08
2023-04-04T23:37:11.249Z,0.94
2023-04-04T23:39:41.650Z,0.98
2023-04-04T23:42:11.134Z,0.88
2023-04-04T23:44:40.645Z,0.99
2023-04-04T23:47:09.961Z,0.82
2023-04-04T23:49:39.107Z,0.97
2023-04-04T23:52:08.420Z,0.95
2023-04-04T23:54:37.500Z,1.00
2023-04-04T23:57:08.094Z,0.95
2023-04-04T23:59:37.145Z,0.86
